createdAt,value
2023-04-02T00:01:05.125Z,98.98
2023-04-02T00:03:08.652Z,99.00
2023-04-02T00:05:31.630Z,99.41
2023-04-02T00:07:33.691Z,99.14
2023-04-02T00:09:38.783Z,99.39
2023-04-02T00:11:54.679Z,99.73
2023-04-02T00:14:01.632Z,99.87
2023-04-02T00:16:06.828Z,99.06
2023-04-02T00:18:14.121Z,99.17
2023-04-02T00:20:16.539Z,99.31
2023-04-02T00:22:20.505Z,99.32
2023-04-02T00:24:22.303Z,99.75
2023-04-02T00:26:36.617Z,99.59
2023-04-02T00:28:38.223Z,99.28
2023-04-02T00:30:47.511Z,99.54
2023-04-02T00:32:49.404Z,99.69
2023-04-02T00:34:51.122Z,99.43
2023-04-02T00:36:53.427Z,99.14
2023-04-02T00:38:59.463Z,99.44
2023-04-02T00:41:06.151Z,99.63
2023-04-02T00:43:08.039Z,99.76
2023-04-02T00:45:22.479Z,99.98
2023-04-02T00:47:32.588Z,99.89
2023-04-02T00:49:38.695Z,99.64
2023-04-02T00:52:02.521Z,99.76
2023-04-02T00:54:09.454Z,99.53
2023-04-02T00:56:17.346Z,99.98
2023-04-02T00:58:31.850Z,99.50
2023-04-02T01:00:35.941Z,99.92
2023-04-02T01:02:40.694Z,99.75
2023-04-02T01:04:51.373Z,99.92
2023-04-02T01:06:53.889Z,99.98
2023-04-02T01:09:01.619Z,99.95
2023-04-02T01:11:24.656Z,100.00
2023-04-02T01:13:46.091Z,100.00
2023-04-02T01:15:57.434Z,100.00
2023-04-02T01:18:13.703Z,100.00
2023-04-02T01:20:45.091Z,100.00
2023-04-02T01:23:06.068Z,99.91
2023-04-02T01:25:08.419Z,99.32
2023-04-02T01:27:18.936Z,99.60
2023-04-02T01:29:26.283Z,100.00
2023-04-02T01:31:29.719Z,100.00
2023-04-02T01:33:34.368Z,100.00
2023-04-02T01:35:42.493Z,99.84
2023-04-02T01:37:53.135Z,98.68
2023-04-02T01:40:10.079Z,98.25
2023-04-02T01:42:25.476Z,98.69
2023-04-02T01:44:34.578Z,98.47
2023-04-02T01:46:40.758Z,98.90
2023-04-02T01:48:42.461Z,98.89
2023-04-02T01:50:45.297Z,98.15
2023-04-02T01:52:50.901Z,98.21
2023-04-02T01:54:53.503Z,98.49
2023-04-02T01:56:57.376Z,98.37
2023-04-02T01:59:01.173Z,98.78
2023-04-02T02:01:16.318Z,98.36
2023-04-02T02:03:19.675Z,98.03
2023-04-02T02:05:23.160Z,98.37
2023-04-02T02:07:28.096Z,98.79
2023-04-02T02:09:34.103Z,98.94
2023-04-02T02:11:36.408Z,98.86
2023-04-02T02:13:39.470Z,98.40
2023-04-02T02:15:42.102Z,98.28
2023-04-02T02:17:44.802Z,98.04
2023-04-02T02:19:51.666Z,98.24
2023-04-02T02:21:56.624Z,97.95
2023-04-02T02:23:59.917Z,98.05
2023-04-02T02:26:01.984Z,97.90
2023-04-02T02:28:32.873Z,98.10
2023-04-02T02:30:42.391Z,98.47
2023-04-02T02:32:55.968Z,98.73
2023-04-02T02:35:11.167Z,99.39
2023-04-02T02:37:17.507Z,99.21
2023-04-02T02:39:40.892Z,98.62
2023-04-02T02:41:52.562Z,98.85
2023-04-02T02:44:04.445Z,98.48
2023-04-02T02:46:10.247Z,99.31
2023-04-02T02:48:16.264Z,98.68
2023-04-02T02:50:23.013Z,98.79
2023-04-02T02:52:32.730Z,99.40
2023-04-02T02:54:46.542Z,98.12
2023-04-02T02:56:54.367Z,99.12
2023-04-02T02:58:56.278Z,99.54
2023-04-02T03:01:04.089Z,99.23
2023-04-02T03:03:12.734Z,99.41
2023-04-02T03:05:21.099Z,99.26
2023-04-02T03:07:27.250Z,99.47
2023-04-02T03:09:41.113Z,99.58
2023-04-02T03:12:08.685Z,98.94
2023-04-02T03:14:26.011Z,98.91
2023-04-02T03:16:42.185Z,99.03
2023-04-02T03:18:47.586Z,98.79
2023-04-02T03:20:54.417Z,98.48
2023-04-02T03:23:40.533Z,98.94
2023-04-02T03:26:06.388Z,98.70
2023-04-02T03:28:15.477Z,97.91
2023-04-02T03:30:47.686Z,98.29
2023-04-02T03:32:57.393Z,98.68
2023-04-02T03:35:16.122Z,98.62
2023-04-02T03:37:42.302Z,98.57
2023-04-02T03:39:50.812Z,98.88
2023-04-02T03:42:01.489Z,98.91
2023-04-02T03:44:11.624Z,98.31
2023-04-02T03:46:37.251Z,98.65
2023-04-02T03:48:51.397Z,98.69
2023-04-02T03:51:14.442Z,99.73
2023-04-02T03:53:16.809Z,100.00
2023-04-02T03:55:21.477Z,100.00
2023-04-02T03:57:36.768Z,100.00
2023-04-02T04:00:02.643Z,100.00
2023-04-02T04:02:40.332Z,99.69
2023-04-02T04:04:45.936Z,99.41
2023-04-02T04:06:52.265Z,99.60
2023-04-02T04:09:00.252Z,100.00
2023-04-02T04:11:08.484Z,99.91
2023-04-02T04:13:18.297Z,99.28
2023-04-02T04:15:31.074Z,99.50
2023-04-02T04:17:57.575Z,99.06
2023-04-02T04:20:33.720Z,98.73
2023-04-02T04:22:35.801Z,98.50
2023-04-02T04:24:48.710Z,98.68
2023-04-02T04:26:57.683Z,98.91
2023-04-02T04:29:12.341Z,98.73
2023-04-02T04:31:27.135Z,99.52
2023-04-02T04:33:40.384Z,99.77
2023-04-02T04:35:51.695Z,100.00
2023-04-02T04:38:03.825Z,100.00
2023-04-02T04:40:19.260Z,100.00
2023-04-02T04:42:33.037Z,100.00
2023-04-02T04:44:39.815Z,100.00
2023-04-02T04:46:47.371Z,100.00
2023-04-02T04:48:58.005Z,99.90
2023-04-02T04:51:08.561Z,99.88
2023-04-02T04:53:20.130Z,99.43
2023-04-02T04:55:38.217Z,99.90
2023-04-02T04:57:42.506Z,100.00
2023-04-02T04:59:56.318Z,100.00
2023-04-02T05:02:17.307Z,100.00
2023-04-02T05:04:28.967Z,99.85
2023-04-02T05:06:44.869Z,99.64
2023-04-02T05:08:51.162Z,99.93
2023-04-02T05:10:58.206Z,99.72
2023-04-02T05:13:21.236Z,99.73
2023-04-02T05:15:29.327Z,99.87
2023-04-02T05:17:36.006Z,99.25
2023-04-02T05:20:00.785Z,99.36
2023-04-02T05:22:14.413Z,99.36
2023-04-02T05:24:38.101Z,99.39
2023-04-02T05:26:45.829Z,98.82
2023-04-02T05:28:50.457Z,98.86
2023-04-02T05:31:03.079Z,98.87
2023-04-02T05:33:20.838Z,98.97
2023-04-02T05:35:29.435Z,98.76
2023-04-02T05:37:31.566Z,98.57
2023-04-02T05:39:35.126Z,98.41
2023-04-02T05:41:44.379Z,98.78
2023-04-02T05:43:51.215Z,99.50
2023-04-02T05:45:57.236Z,99.00
2023-04-02T05:48:04.154Z,98.87
2023-04-02T05:50:19.559Z,98.93
2023-04-02T05:52:29.895Z,98.68
2023-04-02T05:54:42.709Z,98.59
2023-04-02T05:56:48.715Z,98.63
2023-04-02T05:58:59.895Z,98.48
2023-04-02T06:01:18.409Z,98.44
2023-04-02T06:03:27.300Z,97.76
2023-04-02T06:05:36.830Z,98.08
2023-04-02T06:07:59.930Z,98.99
2023-04-02T06:10:09.401Z,100.00
2023-04-02T06:12:22.108Z,100.00
2023-04-02T06:14:24.079Z,100.00
2023-04-02T06:16:28.639Z,100.00
2023-04-02T06:18:34.474Z,100.00
2023-04-02T06:20:36.049Z,100.00
2023-04-02T06:22:40.181Z,100.00
2023-04-02T06:24:47.272Z,100.00
2023-04-02T06:27:11.710Z,100.00
2023-04-02T06:29:24.282Z,100.00
2023-04-02T06:31:50.546Z,100.00
2023-04-02T06:33:56.108Z,100.00
2023-04-02T06:36:01.327Z,100.00
2023-04-02T06:38:13.419Z,100.00
2023-04-02T06:40:33.939Z,100.00
2023-04-02T06:42:44.202Z,100.00
2023-04-02T06:45:02.960Z,99.97
2023-04-02T06:47:34.983Z,98.88
2023-04-02T06:50:18.930Z,98.86
2023-04-02T06:52:28.933Z,98.19
2023-04-02T06:54:31.328Z,98.12
2023-04-02T06:56:43.450Z,99.04
2023-04-02T06:58:47.511Z,98.38
2023-04-02T07:00:50.947Z,98.30
2023-04-02T07:03:02.875Z,98.29
2023-04-02T07:05:08.882Z,97.33
2023-04-02T07:07:12.888Z,97.03
2023-04-02T07:09:17.436Z,97.26
2023-04-02T07:11:23.527Z,98.15
2023-04-02T07:13:28.066Z,96.80
2023-04-02T07:15:30.076Z,97.98
2023-04-02T07:17:32.957Z,97.86
2023-04-02T07:19:34.532Z,96.88
2023-04-02T07:21:36.162Z,97.19
2023-04-02T07:23:38.107Z,96.59
2023-04-02T07:25:39.637Z,96.39
2023-04-02T07:27:41.166Z,96.76
2023-04-02T07:29:42.926Z,96.42
2023-04-02T07:31:44.674Z,96.60
2023-04-02T07:33:46.711Z,95.34
2023-04-02T07:35:48.479Z,95.98
2023-04-02T07:37:50.022Z,95.72
2023-04-02T07:39:51.558Z,96.30
2023-04-02T07:41:58.558Z,95.99
2023-04-02T07:44:00.223Z,97.19
2023-04-02T07:46:02.749Z,97.05
2023-04-02T07:48:09.286Z,96.70
2023-04-02T07:50:11.127Z,96.06
2023-04-02T07:52:12.670Z,95.69
2023-04-02T07:54:14.268Z,95.55
2023-04-02T07:56:17.957Z,95.65
2023-04-02T07:58:19.498Z,95.45
2023-04-02T08:00:22.610Z,94.10
2023-04-02T08:02:24.293Z,94.06
2023-04-02T08:04:27.095Z,94.25
2023-04-02T08:06:28.527Z,93.61
2023-04-02T08:08:30.352Z,94.74
2023-04-02T08:10:31.933Z,94.96
2023-04-02T08:12:33.557Z,94.19
2023-04-02T08:14:35.132Z,94.62
2023-04-02T08:16:48.203Z,94.69
2023-04-02T08:18:49.834Z,93.19
2023-04-02T08:20:52.517Z,93.38
2023-04-02T08:22:54.004Z,92.84
2023-04-02T08:24:56.388Z,93.91
2023-04-02T08:26:57.931Z,94.04
2023-04-02T08:28:59.435Z,94.66
2023-04-02T08:31:01.998Z,94.40
2023-04-02T08:33:03.749Z,94.19
2023-04-02T08:35:05.795Z,94.05
2023-04-02T08:37:09.383Z,93.67
2023-04-02T08:39:11.638Z,94.36
2023-04-02T08:41:24.471Z,93.07
2023-04-02T08:43:37.532Z,91.00
2023-04-02T08:45:41.952Z,91.77
2023-04-02T08:47:44.612Z,92.00
2023-04-02T08:49:51.384Z,91.79
2023-04-02T08:51:53.424Z,90.86
2023-04-02T08:53:59.746Z,91.50
2023-04-02T08:56:18.954Z,91.08
2023-04-02T08:58:43.650Z,90.78
2023-04-02T09:00:48.730Z,92.16
2023-04-02T09:02:57.638Z,91.26
2023-04-02T09:05:02.251Z,90.40
2023-04-02T09:07:04.344Z,91.24
2023-04-02T09:09:06.634Z,91.47
2023-04-02T09:11:23.289Z,91.12
2023-04-02T09:13:30.425Z,92.44
2023-04-02T09:15:35.702Z,92.06
2023-04-02T09:17:50.444Z,92.47
2023-04-02T09:20:17.397Z,93.09
2023-04-02T09:22:22.700Z,93.47
2023-04-02T09:24:24.181Z,93.83
2023-04-02T09:26:31.138Z,93.71
2023-04-02T09:28:32.732Z,90.39
2023-04-02T09:30:46.677Z,92.33
2023-04-02T09:32:49.343Z,90.73
2023-04-02T09:34:51.134Z,91.54
2023-04-02T09:36:52.744Z,92.40
2023-04-02T09:39:15.631Z,92.76
2023-04-02T09:41:21.058Z,91.83
2023-04-02T09:43:28.318Z,92.16
2023-04-02T09:45:29.842Z,92.24
2023-04-02T09:47:31.847Z,90.46
2023-04-02T09:49:36.781Z,90.49
2023-04-02T09:51:38.392Z,89.79
2023-04-02T09:53:42.595Z,90.10
2023-04-02T09:55:44.385Z,89.16
2023-04-02T09:57:47.797Z,89.83
2023-04-02T10:00:30.653Z,90.45
2023-04-02T10:02:33.427Z,90.29
2023-04-02T10:04:47.610Z,88.16
2023-04-02T10:06:50.556Z,91.13
2023-04-02T10:08:51.976Z,90.19
2023-04-02T10:10:57.426Z,90.74
2023-04-02T10:13:15.452Z,91.48
2023-04-02T10:15:26.070Z,89.42
2023-04-02T10:17:32.463Z,90.74
2023-04-02T10:19:37.847Z,87.40
2023-04-02T10:21:41.041Z,89.15
2023-04-02T10:23:42.692Z,88.18
2023-04-02T10:26:16.148Z,90.09
2023-04-02T10:28:42.344Z,88.49
2023-04-02T10:31:07.612Z,89.45
2023-04-02T10:33:19.417Z,90.24
2023-04-02T10:35:54.966Z,90.50
2023-04-02T10:38:03.251Z,88.50
2023-04-02T10:40:36.080Z,87.10
2023-04-02T10:42:46.606Z,85.99
2023-04-02T10:45:23.450Z,86.72
2023-04-02T10:47:42.307Z,84.86
2023-04-02T10:50:04.045Z,87.25
2023-04-02T10:52:28.438Z,87.14
2023-04-02T10:54:36.589Z,87.37
2023-04-02T10:56:50.071Z,86.41
2023-04-02T10:58:57.250Z,87.35
2023-04-02T11:01:13.304Z,85.55
2023-04-02T11:03:22.586Z,85.39
2023-04-02T11:05:38.112Z,86.97
2023-04-02T11:07:52.040Z,86.05
2023-04-02T11:09:57.077Z,86.29
2023-04-02T11:12:01.543Z,84.05
2023-04-02T11:14:06.182Z,85.02
2023-04-02T11:16:07.827Z,88.36
2023-04-02T11:18:29.490Z,87.89
2023-04-02T11:20:57.311Z,86.26
2023-04-02T11:23:10.355Z,86.26
2023-04-02T11:25:21.911Z,87.41
2023-04-02T11:27:31.484Z,88.49
2023-04-02T11:29:35.809Z,88.20
2023-04-02T11:31:37.654Z,88.98
2023-04-02T11:33:45.477Z,88.85
2023-04-02T11:35:48.479Z,89.93
2023-04-02T11:37:50.109Z,89.22
2023-04-02T11:39:54.980Z,88.40
2023-04-02T11:42:04.743Z,87.63
2023-04-02T11:44:22.887Z,88.21
2023-04-02T11:46:34.051Z,88.50
2023-04-02T11:48:36.406Z,89.18
2023-04-02T11:50:42.692Z,88.67
2023-04-02T11:52:47.464Z,87.71
2023-04-02T11:54:57.844Z,87.55
2023-04-02T11:57:15.331Z,86.36
2023-04-02T11:59:38.408Z,85.77
2023-04-02T12:01:56.773Z,87.43
2023-04-02T12:04:13.804Z,87.22
2023-04-02T12:06:46.640Z,86.35
2023-04-02T12:09:14.748Z,89.00
2023-04-02T12:11:16.348Z,88.47
2023-04-02T12:13:20.371Z,91.20
2023-04-02T12:15:24.849Z,92.28
2023-04-02T12:17:30.873Z,91.92
2023-04-02T12:19:32.931Z,91.35
2023-04-02T12:21:34.683Z,91.67
2023-04-02T12:23:37.177Z,91.48
2023-04-02T12:25:40.629Z,92.33
2023-04-02T12:27:42.551Z,90.45
2023-04-02T12:29:44.099Z,90.58
2023-04-02T12:31:47.600Z,92.19
2023-04-02T12:33:52.892Z,92.04
2023-04-02T12:36:01.181Z,93.04
2023-04-02T12:38:02.903Z,93.04
2023-04-02T12:40:17.468Z,91.65
2023-04-02T12:42:36.416Z,92.44
2023-04-02T12:44:48.040Z,92.16
2023-04-02T12:46:51.134Z,91.77
2023-04-02T12:49:03.917Z,92.18
2023-04-02T12:51:05.916Z,91.37
2023-04-02T12:53:26.166Z,91.85
2023-04-02T12:55:27.823Z,91.86
2023-04-02T12:57:29.696Z,90.23
2023-04-02T12:59:36.277Z,89.93
2023-04-02T13:01:38.139Z,90.31
2023-04-02T13:03:39.753Z,90.49
2023-04-02T13:05:45.485Z,89.44
2023-04-02T13:07:47.917Z,91.36
2023-04-02T13:09:54.501Z,90.86
2023-04-02T13:11:56.340Z,90.18
2023-04-02T13:14:02.322Z,90.38
2023-04-02T13:16:10.374Z,90.61
2023-04-02T13:18:20.841Z,89.53
2023-04-02T13:20:36.600Z,91.34
2023-04-02T13:22:38.454Z,90.41
2023-04-02T13:24:41.291Z,90.67
2023-04-02T13:26:43.241Z,89.20
2023-04-02T13:29:02.321Z,89.25
2023-04-02T13:31:03.880Z,89.47
2023-04-02T13:33:05.532Z,88.66
2023-04-02T13:35:07.994Z,88.92
2023-04-02T13:37:12.158Z,89.59
2023-04-02T13:39:13.941Z,89.49
2023-04-02T13:41:22.405Z,89.47
2023-04-02T13:43:23.976Z,89.82
2023-04-02T13:45:28.590Z,89.35
2023-04-02T13:47:30.140Z,90.34
2023-04-02T13:49:31.954Z,90.32
2023-04-02T13:51:44.513Z,90.09
2023-04-02T13:53:52.746Z,89.81
2023-04-02T13:55:54.385Z,88.96
2023-04-02T13:57:57.090Z,90.87
2023-04-02T13:59:58.592Z,90.60
2023-04-02T14:02:07.025Z,91.19
2023-04-02T14:04:10.676Z,90.89
2023-04-02T14:06:17.816Z,91.51
2023-04-02T14:08:33.132Z,91.04
2023-04-02T14:10:59.044Z,91.10
2023-04-02T14:13:24.064Z,90.08
2023-04-02T14:15:43.875Z,91.28
2023-04-02T14:18:03.868Z,90.81
2023-04-02T14:20:32.642Z,91.39
2023-04-02T14:22:39.830Z,92.68
2023-04-02T14:25:31.186Z,92.16
2023-04-02T14:27:53.624Z,91.79
2023-04-02T14:30:13.711Z,90.82
2023-04-02T14:32:23.013Z,89.74
2023-04-02T14:34:36.320Z,89.88
2023-04-02T14:36:45.974Z,91.07
2023-04-02T14:39:25.081Z,90.20
2023-04-02T14:41:34.735Z,90.10
2023-04-02T14:43:46.204Z,89.91
2023-04-02T14:46:02.680Z,90.76
2023-04-02T14:48:34.447Z,89.59
2023-04-02T14:50:41.617Z,88.82
2023-04-02T14:52:47.402Z,89.19
2023-04-02T14:55:02.155Z,90.77
2023-04-02T14:57:18.575Z,90.48
2023-04-02T14:59:48.345Z,90.88
2023-04-02T15:01:56.640Z,90.23
2023-04-02T15:04:02.969Z,89.88
2023-04-02T15:06:14.870Z,89.63
2023-04-02T15:08:27.202Z,100.00
2023-04-02T15:10:32.331Z,95.52
2023-04-02T15:12:36.990Z,87.11
2023-04-02T15:14:44.094Z,86.50
2023-04-02T15:16:45.748Z,79.15
2023-04-02T15:18:51.918Z,78.26
2023-04-02T15:21:29.435Z,78.16
2023-04-02T15:23:43.101Z,72.91
2023-04-02T15:25:48.710Z,71.79
2023-04-02T15:28:16.994Z,69.18
2023-04-02T15:30:24.723Z,69.77
2023-04-02T15:32:32.859Z,69.12
2023-04-02T15:34:58.787Z,70.39
2023-04-02T15:37:02.910Z,71.64
2023-04-02T15:39:17.580Z,60.59
2023-04-02T15:41:27.673Z,60.20
2023-04-02T15:43:35.332Z,63.66
2023-04-02T15:45:41.738Z,68.81
2023-04-02T15:48:40.812Z,68.90
2023-04-02T15:50:57.972Z,73.15
2023-04-02T15:53:07.897Z,79.21
2023-04-02T15:55:37.232Z,67.28
2023-04-02T15:57:41.806Z,81.72
2023-04-02T16:00:14.499Z,62.79
2023-04-02T16:02:48.505Z,64.21
2023-04-02T16:05:03.711Z,68.19
2023-04-02T16:07:27.064Z,68.67
2023-04-02T16:09:50.025Z,70.58
2023-04-02T16:11:59.465Z,72.64
2023-04-02T16:14:15.316Z,71.99
2023-04-02T16:16:20.943Z,74.57
2023-04-02T16:19:16.129Z,75.23
2023-04-02T16:21:24.012Z,75.62
2023-04-02T16:23:33.670Z,75.49
2023-04-02T16:25:45.331Z,76.54
2023-04-02T16:27:54.776Z,76.58
2023-04-02T16:30:08.914Z,77.25
2023-04-02T16:32:50.420Z,79.00
2023-04-02T16:35:41.178Z,78.82
2023-04-02T16:37:57.957Z,77.50
2023-04-02T16:40:26.562Z,78.16
2023-04-02T16:42:39.306Z,77.42
2023-04-02T16:44:50.296Z,79.24
2023-04-02T16:47:10.085Z,74.89
2023-04-02T16:49:26.999Z,72.82
2023-04-02T16:51:44.081Z,72.88
2023-04-02T16:54:13.731Z,73.72
2023-04-02T16:56:34.979Z,73.34
2023-04-02T16:59:03.658Z,74.47
2023-04-02T17:01:13.798Z,75.35
2023-04-02T17:03:37.617Z,73.38
2023-04-02T17:05:48.840Z,73.29
2023-04-02T17:08:11.810Z,73.51
2023-04-02T17:10:30.381Z,71.71
2023-04-02T17:12:43.361Z,72.83
2023-04-02T17:14:52.716Z,73.50
2023-04-02T17:17:01.130Z,74.86
2023-04-02T17:19:10.715Z,73.42
2023-04-02T17:21:17.484Z,74.17
2023-04-02T17:23:20.161Z,73.75
2023-04-02T17:25:26.248Z,74.31
2023-04-02T17:27:32.410Z,75.22
2023-04-02T17:29:40.406Z,75.95
2023-04-02T17:31:44.022Z,75.88
2023-04-02T17:33:45.622Z,76.86
2023-04-02T17:36:05.834Z,76.01
2023-04-02T17:38:17.016Z,75.46
2023-04-02T17:40:49.793Z,76.42
2023-04-02T17:43:12.358Z,77.07
2023-04-02T17:45:20.574Z,76.22
2023-04-02T17:47:28.431Z,76.51
2023-04-02T17:49:36.092Z,77.50
2023-04-02T17:52:01.867Z,75.32
2023-04-02T17:54:21.946Z,76.25
2023-04-02T17:56:52.812Z,76.25
2023-04-02T17:59:16.345Z,77.13
2023-04-02T18:01:46.832Z,77.28
2023-04-02T18:04:18.644Z,77.43
2023-04-02T18:06:22.120Z,78.35
2023-04-02T18:08:33.776Z,78.02
2023-04-02T18:10:53.414Z,74.66
2023-04-02T18:12:58.205Z,75.99
2023-04-02T18:15:21.792Z,74.31
2023-04-02T18:17:52.364Z,76.16
2023-04-02T18:20:14.226Z,76.88
2023-04-02T18:22:31.056Z,74.97
2023-04-02T18:24:58.934Z,75.48
2023-04-02T18:27:24.686Z,77.03
2023-04-02T18:29:44.197Z,77.05
2023-04-02T18:31:52.905Z,75.33
2023-04-02T18:34:10.750Z,75.88
2023-04-02T18:36:33.995Z,74.24
2023-04-02T18:38:57.571Z,75.79
2023-04-02T18:41:14.463Z,75.63
2023-04-02T18:43:52.569Z,75.91
2023-04-02T18:46:15.946Z,76.52
2023-04-02T18:48:56.580Z,76.78
2023-04-02T18:51:00.679Z,75.52
2023-04-02T18:53:18.481Z,76.03
2023-04-02T18:55:24.475Z,75.93
2023-04-02T18:57:33.946Z,77.75
2023-04-02T18:59:56.642Z,77.01
2023-04-02T19:02:00.384Z,75.99
2023-04-02T19:04:14.615Z,75.98
2023-04-02T19:06:21.269Z,76.93
2023-04-02T19:08:53.662Z,76.92
2023-04-02T19:11:00.733Z,76.45
2023-04-02T19:13:02.361Z,75.73
2023-04-02T19:15:15.300Z,77.21
2023-04-02T19:17:39.660Z,76.83
2023-04-02T19:20:01.072Z,75.69
2023-04-02T19:22:12.804Z,76.23
2023-04-02T19:24:52.449Z,75.59
2023-04-02T19:26:59.192Z,75.88
2023-04-02T19:29:22.299Z,73.97
2023-04-02T19:31:45.862Z,76.35
2023-04-02T19:33:56.710Z,76.00
2023-04-02T19:36:01.346Z,76.81
2023-04-02T19:38:21.310Z,77.04
2023-04-02T19:40:34.708Z,77.20
2023-04-02T19:42:51.279Z,76.09
2023-04-02T19:44:54.314Z,76.32
2023-04-02T19:46:56.012Z,76.05
2023-04-02T19:49:16.755Z,75.91
2023-04-02T19:51:18.296Z,75.89
2023-04-02T19:53:20.030Z,76.31
2023-04-02T19:55:21.578Z,77.01
2023-04-02T19:57:23.071Z,77.01
2023-04-02T19:59:24.724Z,76.92
2023-04-02T20:01:26.270Z,75.09
2023-04-02T20:03:28.574Z,75.64
2023-04-02T20:05:30.415Z,73.59
2023-04-02T20:07:31.922Z,74.94
2023-04-02T20:09:33.409Z,74.76
2023-04-02T20:11:37.073Z,74.35
2023-04-02T20:13:38.644Z,75.54
2023-04-02T20:15:40.983Z,74.68
2023-04-02T20:17:42.511Z,76.46
2023-04-02T20:19:44.046Z,75.50
2023-04-02T20:21:45.788Z,76.56
2023-04-02T20:23:47.514Z,76.53
2023-04-02T20:25:53.137Z,76.15
2023-04-02T20:27:54.707Z,76.38
2023-04-02T20:29:56.953Z,76.27
2023-04-02T20:31:58.495Z,77.17
2023-04-02T20:34:00.243Z,78.93
2023-04-02T20:36:06.596Z,78.22
2023-04-02T20:38:08.910Z,78.33
2023-04-02T20:40:10.764Z,78.77
2023-04-02T20:42:13.987Z,77.42
2023-04-02T20:44:15.805Z,76.80
2023-04-02T20:46:17.590Z,77.38
2023-04-02T20:48:19.094Z,77.45
2023-04-02T20:50:20.835Z,76.91
2023-04-02T20:52:23.035Z,77.10
2023-04-02T20:54:24.645Z,78.57
2023-04-02T20:56:26.708Z,78.02
2023-04-02T20:58:28.203Z,77.93
2023-04-02T21:00:29.818Z,78.61
2023-04-02T21:02:31.690Z,78.76
2023-04-02T21:04:33.287Z,78.45
2023-04-02T21:06:37.943Z,76.67
2023-04-02T21:08:39.510Z,76.79
2023-04-02T21:10:41.094Z,77.30
2023-04-02T21:12:42.583Z,77.43
2023-04-02T21:14:44.153Z,78.39
2023-04-02T21:16:45.640Z,77.14
2023-04-02T21:18:49.463Z,76.70
2023-04-02T21:21:02.567Z,76.41
2023-04-02T21:23:04.057Z,75.14
2023-04-02T21:25:06.001Z,76.96
2023-04-02T21:27:07.516Z,77.11
2023-04-02T21:29:11.294Z,76.94
2023-04-02T21:31:18.756Z,77.53
2023-04-02T21:33:20.441Z,77.77
2023-04-02T21:35:21.907Z,78.99
2023-04-02T21:37:23.464Z,78.75
2023-04-02T21:39:25.207Z,79.42
2023-04-02T21:41:32.163Z,78.91
2023-04-02T21:43:33.686Z,78.36
2023-04-02T21:45:35.344Z,79.05
2023-04-02T21:47:37.230Z,79.71
2023-04-02T21:49:38.807Z,79.14
2023-04-02T21:51:42.313Z,78.90
2023-04-02T21:53:44.297Z,77.84
2023-04-02T21:55:45.904Z,78.61
2023-04-02T21:57:47.379Z,79.29
2023-04-02T21:59:48.965Z,79.34
2023-04-02T22:01:51.942Z,78.28
2023-04-02T22:03:56.575Z,78.87
2023-04-02T22:06:16.079Z,78.65
2023-04-02T22:08:17.632Z,79.02
2023-04-02T22:10:19.153Z,80.73
2023-04-02T22:12:20.762Z,80.71
2023-04-02T22:14:23.187Z,80.92
2023-04-02T22:16:27.280Z,81.29
2023-04-02T22:18:29.443Z,81.31
2023-04-02T22:20:31.030Z,81.64
2023-04-02T22:22:32.805Z,82.21
2023-04-02T22:24:34.258Z,80.98
2023-04-02T22:26:36.270Z,81.76
2023-04-02T22:28:38.371Z,81.65
2023-04-02T22:30:39.866Z,80.69
2023-04-02T22:32:41.426Z,80.73
2023-04-02T22:34:45.497Z,80.31
2023-04-02T22:36:47.281Z,80.96
2023-04-02T22:38:49.472Z,81.13
2023-04-02T22:40:51.173Z,81.15
2023-04-02T22:42:53.004Z,79.71
2023-04-02T22:44:54.457Z,79.51
2023-04-02T22:46:55.941Z,78.51
2023-04-02T22:48:57.845Z,81.12
2023-04-02T22:50:59.379Z,82.33
2023-04-02T22:53:01.252Z,83.44
2023-04-02T22:55:02.883Z,82.43
2023-04-02T22:57:04.607Z,81.83
2023-04-02T22:59:06.581Z,81.21
2023-04-02T23:01:15.790Z,81.13
2023-04-02T23:03:17.275Z,81.59
2023-04-02T23:05:18.768Z,82.48
2023-04-02T23:07:20.342Z,82.08
2023-04-02T23:09:21.887Z,82.97
2023-04-02T23:11:27.088Z,82.61
2023-04-02T23:13:28.821Z,82.42
2023-04-02T23:15:30.462Z,83.67
2023-04-02T23:17:31.942Z,81.63
2023-04-02T23:19:33.455Z,81.73
2023-04-02T23:21:34.977Z,81.17
2023-04-02T23:23:37.848Z,81.16
2023-04-02T23:25:41.115Z,80.69
2023-04-02T23:27:42.617Z,81.16
2023-04-02T23:29:44.148Z,81.77
2023-04-02T23:31:45.929Z,81.53
2023-04-02T23:33:47.850Z,81.77
2023-04-02T23:35:49.330Z,81.13
2023-04-02T23:37:50.931Z,80.51
2023-04-02T23:39:52.371Z,79.87
2023-04-02T23:41:53.854Z,79.89
2023-04-02T23:43:56.390Z,79.93
2023-04-02T23:45:58.091Z,80.12
2023-04-02T23:47:59.614Z,80.14
2023-04-02T23:50:01.171Z,79.34
2023-04-02T23:52:02.760Z,79.77
2023-04-02T23:54:04.571Z,78.86
2023-04-02T23:56:06.451Z,78.63
2023-04-02T23:58:08.094Z,79.77
